Gonderange, Luxembourg
Current Conditions -  °F | °C
As of 9:20 AM on Friday 31 Oct 2014 (Local Time) from ELLX Reporting Station
Haze Haze  
Wind Chill: 52°   Ceiling: Unl
Heat Index: 52°   Visibility: 1.8mi
Dew Point: 50°   Wind: 3mph
Humidity: 94%   Direction: NA
Pressure: 30.27"   Gusts: NA
Location:  49.69°N, 6.25°E
Report Text: ELLX 310820Z VRB03KT 3000 BR NSC 11/10 Q1025 BECMG 5000
Loading
Personal Weather Stations






























Interactive Weather Map
Tropical Storm Tracking
New forecast layout! Learn more

10-Day Weather Forecast

Advertisements
Track Severe Weather on mobile